Time;durP1;ratioP1;P1;durP2;ratioP2;P2;SDS_P1;SDS_P2;PMS_P1;PMS_P2;Temp;Humidity;BMP_temperature;BMP_pressure;BME280_temperature;BME280_humidity;BME280_pressure;Samples;Min_cycle;Max_cycle;Signal;HPM_P1;HPM_P2
2023/12/10 00:02:03;;;;;;;27.50;12.60;;;;;;;5.16;99.39;100679.00;107396;1288;1003179;-63
2023/12/10 00:04:29;;;;;;;25.60;11.90;;;;;;;5.19;99.61;100682.70;108118;1288;22019;-62
2023/12/10 00:06:55;;;;;;;24.00;12.00;;;;;;;5.21;99.42;100684.64;108144;1281;21979;-59
2023/12/10 00:09:20;;;;;;;25.00;12.30;;;;;;;5.26;99.61;100689.05;108090;1288;21998;-58
2023/12/10 00:11:46;;;;;;;26.70;12.50;;;;;;;5.28;99.93;100693.80;108118;1288;21999;-62
2023/12/10 00:14:12;;;;;;;24.60;12.00;;;;;;;5.29;99.98;100695.36;108104;1283;21999;-60
2023/12/10 00:16:37;;;;;;;26.00;12.70;;;;;;;5.29;99.68;100698.85;108148;1288;21988;-62
2023/12/10 00:19:03;;;;;;;25.30;11.00;;;;;;;5.28;99.34;100701.96;108145;1288;22029;-63
2023/12/10 00:21:28;;;;;;;22.90;11.00;;;;;;;5.29;99.48;100704.94;108084;1288;22014;-58
2023/12/10 00:23:54;;;;;;;22.90;12.60;;;;;;;5.30;99.66;100707.38;108141;1280;22032;-62
2023/12/10 00:26:20;;;;;;;22.50;10.70;;;;;;;5.32;100.00;100706.37;108135;1286;21999;-58
2023/12/10 00:28:45;;;;;;;20.50;9.70;;;;;;;5.32;99.67;100709.15;108171;1281;21992;-60
2023/12/10 00:31:11;;;;;;;22.70;11.30;;;;;;;5.30;99.54;100705.48;108144;1286;22003;-59
2023/12/10 00:33:37;;;;;;;19.70;9.90;;;;;;;5.29;99.63;100707.90;108131;1284;22140;-62
2023/12/10 00:36:03;;;;;;;19.20;10.60;;;;;;;5.29;99.58;100706.33;108126;1287;21994;-62
2023/12/10 00:38:30;;;;;;;18.40;10.60;;;;;;;5.28;99.59;100704.40;107347;1288;1002781;-62
2023/12/10 00:40:57;;;;;;;20.80;10.00;;;;;;;5.27;99.45;100699.70;107360;1279;1002594;-59
2023/12/10 00:43:22;;;;;;;23.20;11.40;;;;;;;5.27;99.41;100695.00;108125;1288;22003;-61
2023/12/10 00:45:48;;;;;;;25.50;10.80;;;;;;;5.27;99.39;100692.73;108080;1288;22052;-62
2023/12/10 00:48:13;;;;;;;22.70;10.60;;;;;;;5.30;99.89;100692.59;108121;1288;21994;-62
2023/12/10 00:50:39;;;;;;;19.60;10.40;;;;;;;5.29;99.28;100691.35;108101;1277;22000;-61
2023/12/10 00:53:05;;;;;;;16.30;9.80;;;;;;;5.26;99.14;100686.28;108119;1288;22001;-62
2023/12/10 00:55:31;;;;;;;17.40;9.70;;;;;;;5.25;99.13;100684.34;108054;1288;22268;-63
2023/12/10 00:57:56;;;;;;;20.10;10.60;;;;;;;5.25;99.32;100682.79;108118;1283;22048;-62
2023/12/10 01:00:22;;;;;;;18.00;10.20;;;;;;;5.25;99.51;100678.26;108106;1288;22037;-58
2023/12/10 01:02:48;;;;;;;18.70;10.50;;;;;;;5.24;99.32;100681.37;108095;1283;21989;-63
2023/12/10 01:05:14;;;;;;;17.60;9.00;;;;;;;5.23;99.32;100685.00;108124;1288;21987;-63
2023/12/10 01:07:39;;;;;;;17.10;9.50;;;;;;;5.23;99.37;100685.35;108122;1277;22004;-61
2023/12/10 01:10:05;;;;;;;20.70;11.20;;;;;;;5.24;99.35;100687.29;108108;1288;21969;-60
2023/12/10 01:12:37;;;;;;;19.50;10.10;;;;;;;5.25;99.34;100687.30;108128;1278;21987;-59
2023/12/10 01:15:08;;;;;;;18.60;9.10;;;;;;;5.24;99.16;100690.08;108106;1281;22000;-59
2023/12/10 01:17:33;;;;;;;18.80;9.70;;;;;;;5.26;99.55;100690.45;108086;1288;21999;-58
2023/12/10 01:20:00;;;;;;;18.40;9.60;;;;;;;5.29;99.68;100693.98;108095;1277;21990;-62
2023/12/10 01:22:26;;;;;;;16.50;10.80;;;;;;;5.30;99.44;100694.86;108268;1287;22008;-63
2023/12/10 01:24:54;;;;;;;18.80;10.00;;;;;;;5.29;99.35;100693.63;108101;1286;21988;-62
2023/12/10 01:27:19;;;;;;;16.30;10.30;;;;;;;5.29;99.47;100693.63;108204;1287;22001;-59
2023/12/10 01:29:45;;;;;;;19.50;10.20;;;;;;;5.28;99.35;100694.14;107367;1287;1002625;-60
2023/12/10 01:32:11;;;;;;;18.70;8.90;;;;;;;5.29;99.46;100696.23;108189;1287;22036;-62
2023/12/10 01:34:37;;;;;;;16.80;9.20;;;;;;;5.32;99.67;100694.18;108122;1287;22001;-58
2023/12/10 01:37:03;;;;;;;15.60;8.90;;;;;;;5.33;99.51;100687.94;108158;1280;21993;-62
2023/12/10 01:39:30;;;;;;;18.10;9.10;;;;;;;5.35;99.46;100683.78;108144;1287;22025;-63
2023/12/10 01:41:56;;;;;;;17.90;9.40;;;;;;;5.36;99.71;100677.36;108107;1279;21994;-58
2023/12/10 01:44:22;;;;;;;20.30;10.30;;;;;;;5.36;99.68;100671.79;108121;1287;22004;-62
2023/12/10 01:46:48;;;;;;;20.10;10.60;;;;;;;5.32;98.98;100665.98;108113;1279;23038;-58
2023/12/10 01:49:17;;;;;;;18.30;9.00;;;;;;;5.29;99.23;100664.39;108118;1280;21985;-58
2023/12/10 01:51:43;;;;;;;15.60;9.30;;;;;;;5.27;99.36;100665.40;108143;1287;22006;-62
2023/12/10 01:54:20;;;;;;;22.00;9.30;;;;;;;5.26;99.19;100665.39;108125;1280;21996;-58
2023/12/10 01:56:47;;;;;;;15.50;9.60;;;;;;;5.26;99.37;100665.73;108154;1286;21979;-59
2023/12/10 01:59:12;;;;;;;19.40;9.60;;;;;;;5.23;99.07;100665.88;108146;1284;21990;-59
2023/12/10 02:01:38;;;;;;;15.90;9.10;;;;;;;5.22;99.49;100667.24;108118;1287;21998;-62
2023/12/10 02:04:05;;;;;;;18.00;9.20;;;;;;;5.24;99.65;100668.49;108113;1287;21997;-58
2023/12/10 02:06:31;;;;;;;17.90;9.70;;;;;;;5.25;99.44;100669.39;108138;1283;22044;-62
2023/12/10 02:08:57;;;;;;;21.10;10.00;;;;;;;5.28;99.79;100669.25;108097;1287;22507;-60
2023/12/10 02:11:22;;;;;;;14.70;8.70;;;;;;;5.31;99.87;100669.11;108107;1279;21998;-59
2023/12/10 02:13:49;;;;;;;18.50;8.50;;;;;;;5.32;99.48;100672.43;108127;1283;21991;-61
2023/12/10 02:16:15;;;;;;;17.10;8.60;;;;;;;5.34;99.47;100676.28;108131;1287;21996;-59
2023/12/10 02:18:41;;;;;;;15.60;8.00;;;;;;;5.36;99.55;100674.75;108158;1287;21992;-59
2023/12/10 02:21:08;;;;;;;17.20;8.50;;;;;;;5.38;99.66;100672.68;108159;1286;22028;-58
2023/12/10 02:23:45;;;;;;;14.80;8.60;;;;;;;5.39;99.70;100672.18;108176;1287;21997;-62
2023/12/10 02:26:11;;;;;;;17.00;9.30;;;;;;;5.40;99.36;100676.20;108190;1287;21986;-59
2023/12/10 02:28:37;;;;;;;16.50;9.40;;;;;;;5.41;99.22;100672.20;107140;1283;1003051;-62
2023/12/10 02:31:03;;;;;;;16.40;9.00;;;;;;;5.39;99.33;100668.19;108235;1287;22029;-59
2023/12/10 02:33:29;;;;;;;16.80;8.30;;;;;;;5.41;99.36;100672.21;108185;1280;22032;-62
2023/12/10 02:35:55;;;;;;;16.60;8.20;;;;;;;5.43;99.58;100671.36;108181;1287;22000;-59
2023/12/10 02:38:21;;;;;;;18.80;9.60;;;;;;;5.44;99.61;100669.29;108109;1277;22108;-62
2023/12/10 02:40:48;;;;;;;16.40;8.50;;;;;;;5.43;99.28;100669.28;108105;1287;21998;-60
2023/12/10 02:43:16;;;;;;;15.40;9.60;;;;;;;5.43;99.55;100668.58;108210;1276;21991;-63
2023/12/10 02:45:43;;;;;;;19.80;9.80;;;;;;;5.43;99.27;100669.10;108156;1277;21986;-59
2023/12/10 02:48:08;;;;;;;19.10;9.60;;;;;;;5.42;99.12;100668.56;108158;1280;21993;-59
2023/12/10 02:50:34;;;;;;;23.60;11.30;;;;;;;5.40;99.08;100673.23;108129;1279;22089;-59
2023/12/10 02:53:00;;;;;;;19.60;10.40;;;;;;;5.38;99.14;100678.78;108176;1287;22032;-59
2023/12/10 02:55:26;;;;;;;18.60;9.80;;;;;;;5.37;99.28;100683.98;108256;1286;21999;-63
2023/12/10 02:57:51;;;;;;;18.90;10.20;;;;;;;5.36;99.29;100683.98;108176;1287;22002;-59
2023/12/10 03:00:17;;;;;;;21.90;10.60;;;;;;;5.35;99.11;100685.52;108059;1276;22037;-59
2023/12/10 03:02:43;;;;;;;19.00;9.10;;;;;;;5.34;98.79;100690.38;108102;1286;22039;-60
2023/12/10 03:05:08;;;;;;;21.40;9.30;;;;;;;5.35;99.13;100691.27;108149;1287;21988;-63
2023/12/10 03:07:34;;;;;;;22.00;11.50;;;;;;;5.37;99.38;100689.38;108244;1276;21987;-62
2023/12/10 03:10:00;;;;;;;19.60;11.00;;;;;;;5.36;99.51;100691.29;108219;1286;22001;-62
2023/12/10 03:12:25;;;;;;;22.90;10.50;;;;;;;5.37;99.33;100695.13;108169;1287;21992;-63
2023/12/10 03:14:51;;;;;;;20.70;10.70;;;;;;;5.39;99.58;100701.25;108137;1281;21991;-61
2023/12/10 03:17:16;;;;;;;21.10;10.10;;;;;;;5.40;99.51;100704.39;108115;1286;21995;-62
2023/12/10 03:19:44;;;;;;;21.80;10.10;;;;;;;5.38;99.09;100703.30;108203;1279;22026;-62
2023/12/10 03:22:09;;;;;;;20.30;10.60;;;;;;;5.37;99.12;100703.83;108214;1276;21984;-62
2023/12/10 03:24:35;;;;;;;21.20;9.60;;;;;;;5.39;99.67;100707.34;108193;1280;22039;-61
2023/12/10 03:27:01;;;;;;;22.10;10.80;;;;;;;5.42;99.73;100711.21;108223;1280;22125;-59
2023/12/10 03:29:26;;;;;;;21.10;10.20;;;;;;;5.37;99.81;100711.84;108064;1287;22043;-59
2023/12/10 03:31:52;;;;;;;25.00;11.00;;;;;;;5.38;99.91;100713.92;108084;1283;21987;-62
2023/12/10 03:34:17;;;;;;;21.40;10.30;;;;;;;5.41;99.71;100713.80;108077;1287;21994;-65
2023/12/10 03:36:43;;;;;;;21.10;10.40;;;;;;;5.43;99.72;100717.84;108093;1286;22000;-62
2023/12/10 03:39:09;;;;;;;25.70;10.90;;;;;;;5.44;99.78;100722.20;108088;1287;22009;-59
2023/12/10 03:41:34;;;;;;;21.80;11.30;;;;;;;5.44;99.66;100719.59;108133;1274;22000;-62
2023/12/10 03:44:00;;;;;;;21.70;10.50;;;;;;;5.42;99.63;100719.05;107345;1277;1002605;-59
2023/12/10 03:46:25;;;;;;;24.80;11.10;;;;;;;5.43;99.54;100719.92;108107;1280;22022;-59
2023/12/10 03:48:51;;;;;;;18.40;9.90;;;;;;;5.43;99.73;100721.84;108129;1280;22032;-60
2023/12/10 03:51:17;;;;;;;28.90;12.30;;;;;;;5.36;99.79;100722.78;108220;1283;21994;-62
2023/12/10 03:53:43;;;;;;;23.30;11.90;;;;;;;5.41;99.87;100719.54;108111;1280;22004;-61
2023/12/10 03:56:10;;;;;;;24.70;12.00;;;;;;;5.45;99.89;100715.79;108075;1287;21992;-63
2023/12/10 03:58:36;;;;;;;22.50;11.50;;;;;;;5.47;99.90;100717.73;108066;1287;24297;-59
2023/12/10 04:01:02;;;;;;;20.90;11.60;;;;;;;5.49;99.70;100713.05;108071;1287;21998;-59
2023/12/10 04:03:30;;;;;;;23.50;11.80;;;;;;;5.49;99.40;100710.09;108097;1275;22009;-59
2023/12/10 04:05:56;;;;;;;25.70;11.80;;;;;;;5.48;99.60;100705.91;108093;1287;22099;-61
2023/12/10 04:08:21;;;;;;;26.40;12.10;;;;;;;5.48;99.31;100702.94;108165;1286;21993;-59
2023/12/10 04:10:47;;;;;;;19.70;11.00;;;;;;;5.45;99.28;100702.55;108104;1280;22096;-61
2023/12/10 04:13:13;;;;;;;19.80;10.90;;;;;;;5.44;99.40;100705.83;108123;1277;21987;-59
2023/12/10 04:15:38;;;;;;;19.90;10.60;;;;;;;5.42;99.16;100707.55;108055;1280;21990;-63
2023/12/10 04:18:05;;;;;;;24.80;11.90;;;;;;;5.41;99.27;100711.02;108100;1287;21953;-62
2023/12/10 04:20:30;;;;;;;21.50;10.30;;;;;;;5.42;99.46;100715.55;108101;1280;21991;-59
2023/12/10 04:22:56;;;;;;;21.40;10.70;;;;;;;5.43;99.55;100721.84;108085;1274;21991;-59
2023/12/10 04:25:22;;;;;;;27.00;12.80;;;;;;;5.41;99.48;100721.10;108065;1280;21987;-62
2023/12/10 04:27:47;;;;;;;21.80;11.00;;;;;;;5.38;99.24;100722.80;107346;1286;1003043;-62
2023/12/10 04:30:14;;;;;;;20.60;10.30;;;;;;;5.38;99.00;100722.11;108070;1287;21998;-62
2023/12/10 04:32:40;;;;;;;22.20;10.00;;;;;;;5.39;99.33;100721.77;107381;1274;1003193;-58
2023/12/10 04:35:06;;;;;;;24.00;11.10;;;;;;;5.40;99.44;100719.70;108083;1287;22041;-59
2023/12/10 04:37:32;;;;;;;19.80;10.00;;;;;;;5.41;99.63;100719.38;108125;1287;23699;-59
2023/12/10 04:39:57;;;;;;;25.10;11.60;;;;;;;5.43;99.76;100723.23;108124;1286;21990;-63
2023/12/10 04:42:23;;;;;;;25.40;10.90;;;;;;;5.44;99.76;100724.64;108097;1277;22000;-60
2023/12/10 04:44:49;;;;;;;20.50;11.30;;;;;;;5.45;99.82;100726.04;108098;1277;21986;-59
2023/12/10 04:47:14;;;;;;;22.10;11.20;;;;;;;5.42;99.38;100725.83;108158;1286;22026;-60
2023/12/10 04:49:41;;;;;;;23.30;11.80;;;;;;;5.39;98.97;100726.48;108122;1277;22028;-62
2023/12/10 04:52:07;;;;;;;24.20;11.90;;;;;;;5.38;99.24;100727.67;108237;1287;21955;-60
2023/12/10 04:54:33;;;;;;;24.60;10.80;;;;;;;5.40;99.31;100729.45;108093;1276;21989;-64
2023/12/10 04:56:58;;;;;;;18.60;10.30;;;;;;;5.40;99.28;100730.33;108136;1277;22018;-62
2023/12/10 04:59:24;;;;;;;20.00;10.30;;;;;;;5.39;99.15;100730.82;108062;1286;21989;-59
2023/12/10 05:01:49;;;;;;;18.10;9.60;;;;;;;5.39;99.56;100731.88;108125;1286;21990;-62
2023/12/10 05:04:15;;;;;;;22.20;11.20;;;;;;;5.42;99.55;100735.23;108066;1287;21989;-62
2023/12/10 05:06:41;;;;;;;16.40;9.60;;;;;;;5.46;99.84;100735.45;107299;1287;1002625;-59
2023/12/10 05:09:09;;;;;;;25.90;11.70;;;;;;;5.48;99.98;100737.23;107291;1280;1003181;-63
2023/12/10 05:11:35;;;;;;;23.60;10.50;;;;;;;5.54;100.00;100737.30;108184;1277;22005;-59
2023/12/10 05:14:01;;;;;;;24.10;10.40;;;;;;;5.62;100.00;100738.80;108067;1287;22002;-63
2023/12/10 05:16:26;;;;;;;30.40;10.90;;;;;;;5.66;100.00;100736.27;108107;1287;21983;-60
2023/12/10 05:18:52;;;;;;;22.60;10.00;;;;;;;5.69;100.00;100731.95;108198;1287;21995;-63
2023/12/10 05:21:18;;;;;;;25.10;9.60;;;;;;;5.72;100.00;100733.04;108178;1280;21994;-62
2023/12/10 05:23:43;;;;;;;20.60;10.00;;;;;;;5.73;99.99;100729.04;108150;1287;21983;-64
2023/12/10 05:26:09;;;;;;;20.50;9.50;;;;;;;5.74;99.94;100728.17;108231;1287;21989;-60
2023/12/10 05:28:34;;;;;;;26.30;9.50;;;;;;;5.77;100.00;100726.46;107429;1287;1002310;-60
2023/12/10 05:31:00;;;;;;;31.00;9.70;;;;;;;5.79;100.00;100728.59;108236;1287;21988;-62
2023/12/10 05:33:26;;;;;;;24.90;9.80;;;;;;;5.81;100.00;100731.05;108206;1274;21999;-60
2023/12/10 05:35:51;;;;;;;20.10;9.60;;;;;;;5.84;100.00;100730.05;108195;1287;22036;-59
2023/12/10 05:38:17;;;;;;;22.90;10.50;;;;;;;5.87;100.00;100728.52;108126;1287;21996;-61
2023/12/10 05:40:42;;;;;;;21.70;11.60;;;;;;;5.90;100.00;100727.86;108129;1286;21995;-60
2023/12/10 05:43:08;;;;;;;21.90;10.00;;;;;;;5.90;99.94;100730.13;108138;1286;21976;-61
2023/12/10 05:45:34;;;;;;;19.10;10.60;;;;;;;5.89;99.85;100731.84;108082;1276;21977;-63
2023/12/10 05:47:59;;;;;;;20.70;9.90;;;;;;;5.87;99.92;100735.66;108146;1287;21987;-60
2023/12/10 05:50:25;;;;;;;20.10;9.60;;;;;;;5.89;99.96;100738.66;108170;1287;22001;-60
2023/12/10 05:52:51;;;;;;;19.10;10.90;;;;;;;5.93;100.00;100740.80;108252;1273;21991;-60
2023/12/10 05:55:16;;;;;;;25.70;10.80;;;;;;;5.98;100.00;100741.19;108226;1280;21990;-60
2023/12/10 05:57:42;;;;;;;19.50;9.50;;;;;;;6.00;100.00;100741.20;108079;1283;22046;-60
2023/12/10 06:00:08;;;;;;;19.40;10.50;;;;;;;6.00;100.00;100742.96;108107;1287;21994;-60
2023/12/10 06:02:34;;;;;;;19.20;10.20;;;;;;;6.03;100.00;100741.62;108275;1287;21997;-63
2023/12/10 06:05:01;;;;;;;19.10;9.90;;;;;;;6.04;100.00;100743.39;108161;1283;22104;-63
2023/12/10 06:07:27;;;;;;;21.00;9.40;;;;;;;6.06;100.00;100746.38;108286;1287;22012;-64
2023/12/10 06:09:52;;;;;;;17.70;9.80;;;;;;;6.09;100.00;100748.67;108115;1287;21992;-62
2023/12/10 06:12:18;;;;;;;19.40;9.30;;;;;;;6.09;99.98;100751.11;108093;1287;21990;-60
2023/12/10 06:14:44;;;;;;;19.20;9.20;;;;;;;6.09;99.99;100751.82;108077;1287;21989;-63
2023/12/10 06:26:55;;;;;;;21.80;11.00;;;;;;;2.94;100.00;100763.23;107400;1292;548249;-63
2023/12/10 06:29:22;;;;;;;20.90;10.70;;;;;;;5.43;100.00;100752.46;107782;1289;21997;-62
2023/12/10 06:31:48;;;;;;;21.50;10.50;;;;;;;5.74;100.00;100756.05;107688;1294;23747;-61
2023/12/10 06:34:13;;;;;;;19.20;9.70;;;;;;;5.86;100.00;100752.02;107708;1294;21990;-58
2023/12/10 06:36:39;;;;;;;17.60;9.40;;;;;;;5.93;100.00;100750.36;107680;1294;21993;-63
2023/12/10 06:39:06;;;;;;;15.70;8.70;;;;;;;5.98;100.00;100750.79;107692;1292;182347;-63
2023/12/10 06:41:32;;;;;;;19.00;10.10;;;;;;;6.03;100.00;100752.79;107711;1290;23133;-64
2023/12/10 06:43:58;;;;;;;15.50;9.00;;;;;;;6.08;100.00;100755.98;107032;1292;1002503;-59
2023/12/10 06:46:23;;;;;;;16.40;9.50;;;;;;;6.10;100.00;100754.43;107801;1292;22042;-63
2023/12/10 06:48:49;;;;;;;15.80;9.20;;;;;;;6.14;100.00;100759.02;107869;1280;21995;-63
2023/12/10 06:51:14;;;;;;;17.10;9.60;;;;;;;6.18;100.00;100757.85;107884;1289;22948;-61
2023/12/10 06:53:41;;;;;;;16.60;8.80;;;;;;;6.16;100.00;100755.04;107950;1289;22005;-64
2023/12/10 06:56:08;;;;;;;15.80;8.90;;;;;;;6.16;100.00;100755.04;107877;1289;21985;-64
2023/12/10 06:58:34;;;;;;;17.70;9.10;;;;;;;6.17;100.00;100752.60;107914;1289;21992;-64
2023/12/10 07:01:01;;;;;;;16.60;9.30;;;;;;;6.21;100.00;100755.61;107890;1281;22060;-60
2023/12/10 07:03:27;;;;;;;17.90;9.10;;;;;;;6.24;100.00;100763.14;107997;1289;21995;-65
2023/12/10 07:05:53;;;;;;;20.00;9.40;;;;;;;6.26;100.00;100767.02;107877;1277;22001;-64
2023/12/10 07:08:18;;;;;;;16.80;9.40;;;;;;;6.29;100.00;100774.87;107875;1287;21946;-62
2023/12/10 07:10:44;;;;;;;17.30;9.30;;;;;;;6.28;100.00;100774.16;107901;1289;21987;-59
2023/12/10 07:13:10;;;;;;;15.90;9.30;;;;;;;6.28;100.00;100771.55;107892;1289;21999;-60
2023/12/10 07:15:35;;;;;;;17.70;9.70;;;;;;;6.30;100.00;100770.01;107201;1289;1002499;-65
2023/12/10 07:18:01;;;;;;;16.10;9.10;;;;;;;6.34;100.00;100767.10;107924;1289;22026;-60
2023/12/10 07:20:27;;;;;;;16.50;10.00;;;;;;;6.38;100.00;100769.23;107937;1289;21983;-60
2023/12/10 07:22:53;;;;;;;15.80;9.00;;;;;;;6.40;100.00;100769.42;107936;1289;21987;-60
2023/12/10 07:25:18;;;;;;;17.20;9.60;;;;;;;6.42;100.00;100774.14;108108;1289;21991;-65
2023/12/10 07:27:44;;;;;;;17.40;9.00;;;;;;;6.42;100.00;100776.92;107903;1289;21982;-61
2023/12/10 07:30:10;;;;;;;15.30;8.60;;;;;;;6.40;100.00;100779.19;107924;1289;21992;-66
2023/12/10 07:32:36;;;;;;;19.50;9.30;;;;;;;6.41;100.00;100777.45;107925;1280;21994;-60
2023/12/10 07:35:03;;;;;;;16.50;9.60;;;;;;;6.47;100.00;100775.77;108097;1284;22010;-59
2023/12/10 07:37:29;;;;;;;17.30;9.60;;;;;;;6.52;100.00;100771.48;108097;1289;21986;-66
2023/12/10 07:39:54;;;;;;;16.10;9.70;;;;;;;6.57;100.00;100774.84;107929;1278;21997;-59
2023/12/10 07:42:20;;;;;;;21.70;9.80;;;;;;;6.62;100.00;100774.36;107920;1289;21993;-61
2023/12/10 07:44:46;;;;;;;15.00;8.90;;;;;;;6.65;100.00;100770.38;107138;1289;1002381;-59
2023/12/10 07:47:11;;;;;;;16.10;9.60;;;;;;;6.68;100.00;100771.29;107854;1289;21980;-59
2023/12/10 07:49:37;;;;;;;17.00;9.50;;;;;;;6.72;100.00;100774.81;108039;1284;21982;-58
2023/12/10 07:52:03;;;;;;;18.70;9.60;;;;;;;6.77;100.00;100776.95;108026;1288;22170;-59
2023/12/10 07:54:28;;;;;;;16.40;9.20;;;;;;;6.80;100.00;100779.09;108056;1289;21987;-59
2023/12/10 07:56:54;;;;;;;15.40;9.20;;;;;;;6.82;100.00;100785.55;108013;1289;22004;-62
2023/12/10 07:59:20;;;;;;;17.40;9.90;;;;;;;6.84;100.00;100787.30;107867;1276;21991;-60
2023/12/10 08:01:45;;;;;;;15.30;9.90;;;;;;;6.87;100.00;100786.11;107879;1289;21995;-61
2023/12/10 08:04:11;;;;;;;17.30;9.30;;;;;;;6.90;100.00;100785.45;107860;1276;21995;-60
2023/12/10 08:06:37;;;;;;;18.10;10.40;;;;;;;6.94;100.00;100786.35;107859;1289;22240;-61
2023/12/10 08:09:05;;;;;;;16.80;10.60;;;;;;;6.97;100.00;100788.48;107822;1286;22029;-59
2023/12/10 08:11:31;;;;;;;19.70;10.30;;;;;;;7.01;100.00;100796.36;107875;1289;21992;-59
2023/12/10 08:13:57;;;;;;;18.50;9.90;;;;;;;7.05;100.00;100801.46;107937;1289;22160;-59
2023/12/10 08:16:23;;;;;;;14.70;8.90;;;;;;;7.08;100.00;100796.77;107874;1289;21989;-68
2023/12/10 08:18:50;;;;;;;17.00;8.70;;;;;;;7.11;100.00;100792.95;107994;1283;21992;-68
2023/12/10 08:21:16;;;;;;;16.70;9.10;;;;;;;7.15;100.00;100792.48;107986;1287;22011;-68
2023/12/10 08:23:41;;;;;;;22.40;10.20;;;;;;;7.18;100.00;100789.02;108034;1284;22842;-60
2023/12/10 08:26:07;;;;;;;19.00;10.50;;;;;;;7.19;100.00;100785.53;107962;1289;21986;-68
2023/12/10 08:28:34;;;;;;;19.10;11.10;;;;;;;7.21;100.00;100783.45;107904;1289;21991;-60
2023/12/10 08:30:59;;;;;;;18.60;10.60;;;;;;;7.20;100.00;100785.89;108006;1286;21975;-68
2023/12/10 08:33:25;;;;;;;18.00;10.00;;;;;;;7.19;100.00;100784.65;108188;1288;21986;-68
2023/12/10 08:35:50;;;;;;;17.20;10.00;;;;;;;7.19;100.00;100778.19;107950;1287;21985;-68
2023/12/10 08:38:16;;;;;;;16.60;10.30;;;;;;;7.21;100.00;100783.27;107985;1289;21992;-62
2023/12/10 08:40:42;;;;;;;18.70;9.80;;;;;;;7.22;100.00;100781.90;107969;1278;21989;-61
2023/12/10 08:43:08;;;;;;;18.80;10.90;;;;;;;7.24;100.00;100787.14;107962;1289;21987;-61
2023/12/10 08:45:33;;;;;;;21.30;10.30;;;;;;;7.24;100.00;100789.41;107970;1289;22026;-59
2023/12/10 08:47:59;;;;;;;19.00;11.60;;;;;;;7.23;100.00;100790.97;107986;1289;21988;-68
2023/12/10 08:50:25;;;;;;;20.90;12.10;;;;;;;7.22;100.00;100790.09;107903;1286;21988;-60
2023/12/10 08:52:50;;;;;;;24.50;12.60;;;;;;;7.23;100.00;100788.17;107995;1289;21985;-69
2023/12/10 08:55:16;;;;;;;21.20;12.10;;;;;;;7.24;100.00;100788.19;107968;1289;22001;-60
2023/12/10 08:57:41;;;;;;;25.50;13.30;;;;;;;7.25;100.00;100785.40;107993;1287;21989;-62
2023/12/10 09:00:08;;;;;;;29.40;15.00;;;;;;;7.26;100.00;100786.29;107955;1287;21990;-69
2023/12/10 09:02:34;;;;;;;33.50;15.90;;;;;;;7.28;100.00;100788.21;107955;1289;22000;-69
2023/12/10 09:04:59;;;;;;;26.50;12.50;;;;;;;7.31;100.00;100782.99;107925;1289;21987;-69
2023/12/10 09:07:26;;;;;;;30.80;13.60;;;;;;;7.34;100.00;100787.90;107933;1289;21983;-69
2023/12/10 09:09:51;;;;;;;28.90;14.90;;;;;;;7.37;100.00;100788.63;107996;1289;21990;-60
2023/12/10 09:12:17;;;;;;;27.20;13.30;;;;;;;7.41;100.00;100790.93;107958;1289;21999;-70
2023/12/10 09:14:43;;;;;;;22.70;12.90;;;;;;;7.43;100.00;100794.09;108008;1289;22379;-70
2023/12/10 09:17:08;;;;;;;26.30;13.10;;;;;;;7.44;100.00;100786.07;107985;1289;21998;-60
2023/12/10 09:19:34;;;;;;;23.90;13.60;;;;;;;7.45;100.00;100785.36;107947;1289;21990;-62
2023/12/10 09:22:00;;;;;;;27.40;11.50;;;;;;;7.47;100.00;100778.40;108016;1289;21989;-71
2023/12/10 09:24:26;;;;;;;23.20;12.20;;;;;;;7.50;100.00;100768.11;108147;1289;22164;-61
2023/12/10 09:26:51;;;;;;;25.20;12.40;;;;;;;7.55;100.00;100763.95;108029;1289;21984;-70
2023/12/10 09:29:17;;;;;;;25.40;12.10;;;;;;;7.57;100.00;100761.35;108104;1276;21990;-70
2023/12/10 09:31:43;;;;;;;25.40;12.90;;;;;;;7.59;100.00;100761.36;108094;1283;21981;-71
2023/12/10 09:34:09;;;;;;;26.90;14.80;;;;;;;7.61;100.00;100759.09;107876;1289;23612;-61
2023/12/10 09:36:35;;;;;;;25.50;14.70;;;;;;;7.61;100.00;100757.02;108020;1278;21992;-71
2023/12/10 09:39:01;;;;;;;22.30;13.80;;;;;;;7.59;100.00;100759.44;107982;1289;21987;-61
2023/12/10 09:41:27;;;;;;;27.90;14.20;;;;;;;7.58;100.00;100766.95;108055;1289;21992;-72
2023/12/10 09:43:53;;;;;;;26.90;13.80;;;;;;;7.58;100.00;100761.19;108067;1280;21965;-72
2023/12/10 09:46:19;;;;;;;22.60;12.40;;;;;;;7.59;100.00;100760.14;108003;1289;21994;-72
2023/12/10 09:48:44;;;;;;;27.60;12.70;;;;;;;7.61;100.00;100759.27;107944;1288;21985;-74
2023/12/10 09:51:10;;;;;;;31.00;13.20;;;;;;;7.64;100.00;100762.09;107830;1284;23672;-73
2023/12/10 09:53:38;;;;;;;22.60;12.60;;;;;;;7.65;100.00;100768.04;108150;1289;21988;-73
2023/12/10 09:56:05;;;;;;;23.60;13.00;;;;;;;7.64;100.00;100773.27;108080;1287;23608;-61
2023/12/10 09:58:30;;;;;;;29.20;14.00;;;;;;;7.63;100.00;100778.16;107946;1281;22075;-71
2023/12/10 10:00:56;;;;;;;25.20;13.80;;;;;;;7.64;100.00;100783.40;107746;1287;23796;-60
2023/12/10 10:03:22;;;;;;;24.20;13.40;;;;;;;7.65;100.00;100783.58;107941;1289;22747;-72
2023/12/10 10:05:48;;;;;;;23.40;13.60;;;;;;;7.65;100.00;100785.33;107953;1276;21995;-72
2023/12/10 10:08:14;;;;;;;27.20;12.90;;;;;;;7.65;100.00;100775.90;108014;1276;21987;-60
2023/12/10 10:10:40;;;;;;;26.30;12.50;;;;;;;7.65;100.00;100769.63;107939;1289;21984;-61
2023/12/10 10:13:06;;;;;;;22.10;12.20;;;;;;;7.64;100.00;100763.85;107892;1287;22029;-72
2023/12/10 10:15:32;;;;;;;22.20;13.60;;;;;;;7.65;100.00;100765.93;108075;1287;23683;-61
2023/12/10 10:17:58;;;;;;;23.30;13.60;;;;;;;7.65;100.00;100763.84;107998;1289;21996;-72
2023/12/10 10:20:24;;;;;;;22.80;13.00;;;;;;;7.54;99.51;100762.56;107816;1288;21991;-60
2023/12/10 10:22:51;;;;;;;23.10;12.90;;;;;;;7.35;98.48;100755.45;108059;1289;21986;-61
2023/12/10 10:25:17;;;;;;;23.70;12.60;;;;;;;7.23;98.71;100749.42;107844;1283;23095;-72
2023/12/10 10:27:43;;;;;;;24.30;12.80;;;;;;;7.18;99.11;100747.46;107257;1283;1002146;-63
2023/12/10 10:30:10;;;;;;;24.10;12.50;;;;;;;7.14;99.15;100755.81;107900;1289;21993;-72
2023/12/10 10:32:36;;;;;;;21.40;12.10;;;;;;;7.09;99.20;100760.83;108058;1289;22023;-71
2023/12/10 10:35:03;;;;;;;20.70;11.60;;;;;;;7.03;99.26;100767.95;107826;1276;22045;-71
2023/12/10 10:37:29;;;;;;;23.20;12.90;;;;;;;6.97;99.12;100767.54;107998;1288;21986;-71
2023/12/10 10:39:56;;;;;;;22.40;13.00;;;;;;;6.94;99.30;100769.44;107346;1286;1002305;-70
2023/12/10 10:42:22;;;;;;;25.00;13.30;;;;;;;6.95;99.80;100768.05;107995;1288;23707;-60
2023/12/10 10:44:48;;;;;;;26.10;14.30;;;;;;;6.95;99.78;100771.89;107939;1289;21993;-60
2023/12/10 10:47:15;;;;;;;28.00;16.70;;;;;;;6.93;99.66;100776.74;108162;1278;21989;-60
2023/12/10 10:49:44;;;;;;;29.20;16.60;;;;;;;6.92;99.36;100773.77;108007;1289;21987;-73
2023/12/10 10:52:17;;;;;;;28.60;15.80;;;;;;;6.85;98.47;100772.31;108013;1287;23631;-62
2023/12/10 10:54:43;;;;;;;22.90;13.90;;;;;;;6.72;97.82;100772.38;107995;1287;21986;-73
2023/12/10 10:57:09;;;;;;;27.50;15.00;;;;;;;6.61;97.72;100767.73;107868;1286;23602;-60
2023/12/10 10:59:35;;;;;;;19.80;12.20;;;;;;;6.55;98.09;100770.45;107947;1289;21983;-61
2023/12/10 11:02:02;;;;;;;24.30;14.20;;;;;;;6.51;98.50;100768.32;108039;1285;21957;-73
2023/12/10 11:04:35;;;;;;;21.30;11.90;;;;;;;6.48;98.58;100768.63;107918;1289;21997;-60
2023/12/10 11:07:04;;;;;;;20.20;11.40;;;;;;;6.45;98.73;100773.30;107991;1284;21990;-62
2023/12/10 11:09:33;;;;;;;16.80;10.60;;;;;;;6.40;98.48;100774.30;107963;1289;24421;-73
2023/12/10 11:11:59;;;;;;;18.20;11.40;;;;;;;6.37;98.67;100779.86;108008;1286;22839;-59